sensor_id;sensor_type;location;lat;lon;timestamp;temperature;humidity
47482;DHT22;33219;47.410;9.730;2023-04-03T00:00:57;6.70;99.90
47482;DHT22;33219;47.410;9.730;2023-04-03T00:03:25;6.70;99.90
47482;DHT22;33219;47.410;9.730;2023-04-03T00:05:53;6.70;99.90
47482;DHT22;33219;47.410;9.730;2023-04-03T00:08:21;6.60;99.90
47482;DHT22;33219;47.410;9.730;2023-04-03T00:10:49;6.60;99.90
47482;DHT22;33219;47.410;9.730;2023-04-03T00:13:17;6.60;99.90
47482;DHT22;33219;47.410;9.730;2023-04-03T00:15:44;6.60;99.90
47482;DHT22;33219;47.410;9.730;2023-04-03T00:18:12;6.50;99.90
47482;DHT22;33219;47.410;9.730;2023-04-03T00:20:39;6.50;99.90
47482;DHT22;33219;47.410;9.730;2023-04-03T00:23:07;6.50;99.90
47482;DHT22;33219;47.410;9.730;2023-04-03T00:25:35;6.50;99.90
47482;DHT22;33219;47.410;9.730;2023-04-03T00:28:03;6.50;99.90
47482;DHT22;33219;47.410;9.730;2023-04-03T00:30:31;6.50;99.90
47482;DHT22;33219;47.410;9.730;2023-04-03T00:32:59;6.40;99.90
47482;DHT22;33219;47.410;9.730;2023-04-03T00:35:27;6.40;99.90
47482;DHT22;33219;47.410;9.730;2023-04-03T00:37:55;6.30;99.90
47482;DHT22;33219;47.410;9.730;2023-04-03T00:40:24;6.20;99.90
47482;DHT22;33219;47.410;9.730;2023-04-03T00:42:58;6.20;99.90
47482;DHT22;33219;47.410;9.730;2023-04-03T00:45:34;6.10;99.90
47482;DHT22;33219;47.410;9.730;2023-04-03T00:48:04;6.10;99.90
47482;DHT22;33219;47.410;9.730;2023-04-03T00:50:35;6.00;99.90
47482;DHT22;33219;47.410;9.730;2023-04-03T00:53:05;5.80;99.90
47482;DHT22;33219;47.410;9.730;2023-04-03T00:55:35;5.80;99.90
47482;DHT22;33219;47.410;9.730;2023-04-03T00:58:05;5.70;99.90
47482;DHT22;33219;47.410;9.730;2023-04-03T01:00:38;5.60;99.90
47482;DHT22;33219;47.410;9.730;2023-04-03T01:03:07;5.40;99.90
47482;DHT22;33219;47.410;9.730;2023-04-03T01:05:36;5.30;99.90
47482;DHT22;33219;47.410;9.730;2023-04-03T01:08:03;5.20;99.90
47482;DHT22;33219;47.410;9.730;2023-04-03T01:10:31;5.10;99.90
47482;DHT22;33219;47.410;9.730;2023-04-03T01:13:00;5.10;99.90
47482;DHT22;33219;47.410;9.730;2023-04-03T01:15:28;5.00;99.90
47482;DHT22;33219;47.410;9.730;2023-04-03T01:17:58;4.90;99.90
47482;DHT22;33219;47.410;9.730;2023-04-03T01:25:45;4.80;99.90
47482;DHT22;33219;47.410;9.730;2023-04-03T01:28:16;4.80;99.90
47482;DHT22;33219;47.410;9.730;2023-04-03T01:31:02;4.70;99.90
47482;DHT22;33219;47.410;9.730;2023-04-03T01:33:29;4.70;99.90
47482;DHT22;33219;47.410;9.730;2023-04-03T01:35:57;4.70;99.90
47482;DHT22;33219;47.410;9.730;2023-04-03T01:38:25;4.70;99.90
47482;DHT22;33219;47.410;9.730;2023-04-03T01:40:53;4.70;99.90
47482;DHT22;33219;47.410;9.730;2023-04-03T01:43:20;4.70;99.90
47482;DHT22;33219;47.410;9.730;2023-04-03T01:45:48;4.70;99.90
47482;DHT22;33219;47.410;9.730;2023-04-03T01:48:17;4.70;99.90
47482;DHT22;33219;47.410;9.730;2023-04-03T01:50:44;4.70;99.90
47482;DHT22;33219;47.410;9.730;2023-04-03T01:53:12;4.60;99.90
47482;DHT22;33219;47.410;9.730;2023-04-03T01:55:40;4.60;99.90
47482;DHT22;33219;47.410;9.730;2023-04-03T01:58:07;4.60;99.90
47482;DHT22;33219;47.410;9.730;2023-04-03T02:00:35;4.60;99.90
47482;DHT22;33219;47.410;9.730;2023-04-03T02:03:03;4.60;99.90
47482;DHT22;33219;47.410;9.730;2023-04-03T02:05:31;4.60;99.90
47482;DHT22;33219;47.410;9.730;2023-04-03T02:07:58;4.60;99.90
47482;DHT22;33219;47.410;9.730;2023-04-03T02:10:26;4.60;99.90
47482;DHT22;33219;47.410;9.730;2023-04-03T02:12:54;4.60;99.90
47482;DHT22;33219;47.410;9.730;2023-04-03T02:15:22;4.60;99.90
47482;DHT22;33219;47.410;9.730;2023-04-03T02:17:49;4.50;99.90
47482;DHT22;33219;47.410;9.730;2023-04-03T02:20:17;4.50;99.90
47482;DHT22;33219;47.410;9.730;2023-04-03T02:22:45;4.50;99.90
47482;DHT22;33219;47.410;9.730;2023-04-03T02:25:12;4.50;99.90
47482;DHT22;33219;47.410;9.730;2023-04-03T02:27:40;4.40;99.90
47482;DHT22;33219;47.410;9.730;2023-04-03T02:30:08;4.40;99.90
47482;DHT22;33219;47.410;9.730;2023-04-03T02:32:37;4.40;99.90
47482;DHT22;33219;47.410;9.730;2023-04-03T02:35:04;4.40;99.90
47482;DHT22;33219;47.410;9.730;2023-04-03T02:37:32;4.40;99.90
47482;DHT22;33219;47.410;9.730;2023-04-03T02:40:00;4.40;99.90
47482;DHT22;33219;47.410;9.730;2023-04-03T02:42:27;4.30;99.90
47482;DHT22;33219;47.410;9.730;2023-04-03T02:44:55;4.30;99.90
47482;DHT22;33219;47.410;9.730;2023-04-03T02:47:23;4.30;99.90
47482;DHT22;33219;47.410;9.730;2023-04-03T02:49:50;4.30;99.90
47482;DHT22;33219;47.410;9.730;2023-04-03T02:52:19;4.30;99.90
47482;DHT22;33219;47.410;9.730;2023-04-03T02:54:47;4.30;99.90
47482;DHT22;33219;47.410;9.730;2023-04-03T02:57:15;4.30;99.90
47482;DHT22;33219;47.410;9.730;2023-04-03T02:59:42;4.30;99.90
47482;DHT22;33219;47.410;9.730;2023-04-03T03:02:10;4.20;99.90
47482;DHT22;33219;47.410;9.730;2023-04-03T03:04:38;4.20;99.90
47482;DHT22;33219;47.410;9.730;2023-04-03T03:07:06;4.20;99.90
47482;DHT22;33219;47.410;9.730;2023-04-03T03:09:33;4.20;99.90
47482;DHT22;33219;47.410;9.730;2023-04-03T03:12:01;4.20;99.90
47482;DHT22;33219;47.410;9.730;2023-04-03T03:14:28;4.20;99.90
47482;DHT22;33219;47.410;9.730;2023-04-03T03:16:56;4.20;99.90
47482;DHT22;33219;47.410;9.730;2023-04-03T03:19:24;4.20;99.90
47482;DHT22;33219;47.410;9.730;2023-04-03T03:21:51;4.20;99.90
47482;DHT22;33219;47.410;9.730;2023-04-03T03:24:19;4.10;99.90
47482;DHT22;33219;47.410;9.730;2023-04-03T03:26:47;4.10;99.90
47482;DHT22;33219;47.410;9.730;2023-04-03T03:29:14;4.10;99.90
47482;DHT22;33219;47.410;9.730;2023-04-03T03:31:42;4.10;99.90
47482;DHT22;33219;47.410;9.730;2023-04-03T03:34:09;4.10;99.90
47482;DHT22;33219;47.410;9.730;2023-04-03T03:36:37;4.00;99.90
47482;DHT22;33219;47.410;9.730;2023-04-03T03:39:05;4.00;99.90
47482;DHT22;33219;47.410;9.730;2023-04-03T03:41:32;4.00;99.90
47482;DHT22;33219;47.410;9.730;2023-04-03T03:44:00;4.00;99.90
47482;DHT22;33219;47.410;9.730;2023-04-03T03:46:27;4.00;99.90
47482;DHT22;33219;47.410;9.730;2023-04-03T03:48:55;4.00;99.90
47482;DHT22;33219;47.410;9.730;2023-04-03T03:51:22;3.90;99.90
47482;DHT22;33219;47.410;9.730;2023-04-03T03:53:50;3.90;99.90
47482;DHT22;33219;47.410;9.730;2023-04-03T03:56:18;3.90;99.90
47482;DHT22;33219;47.410;9.730;2023-04-03T03:58:45;3.90;99.90
47482;DHT22;33219;47.410;9.730;2023-04-03T04:01:13;3.90;99.90
47482;DHT22;33219;47.410;9.730;2023-04-03T04:03:41;3.80;99.90
47482;DHT22;33219;47.410;9.730;2023-04-03T04:06:09;3.80;99.90
47482;DHT22;33219;47.410;9.730;2023-04-03T04:08:37;3.80;99.90
47482;DHT22;33219;47.410;9.730;2023-04-03T04:11:04;3.80;99.90
47482;DHT22;33219;47.410;9.730;2023-04-03T04:13:32;3.70;99.90
47482;DHT22;33219;47.410;9.730;2023-04-03T04:16:00;3.70;99.90
47482;DHT22;33219;47.410;9.730;2023-04-03T04:18:27;3.70;99.90
47482;DHT22;33219;47.410;9.730;2023-04-03T04:20:55;3.70;99.90
47482;DHT22;33219;47.410;9.730;2023-04-03T04:23:23;3.70;99.90
47482;DHT22;33219;47.410;9.730;2023-04-03T04:25:51;3.60;99.90
47482;DHT22;33219;47.410;9.730;2023-04-03T04:28:18;3.60;99.90
47482;DHT22;33219;47.410;9.730;2023-04-03T04:30:46;3.50;99.90
47482;DHT22;33219;47.410;9.730;2023-04-03T04:33:14;3.50;99.90
47482;DHT22;33219;47.410;9.730;2023-04-03T04:35:42;3.50;99.90
47482;DHT22;33219;47.410;9.730;2023-04-03T04:38:10;3.40;99.90
47482;DHT22;33219;47.410;9.730;2023-04-03T04:40:37;3.50;99.90
47482;DHT22;33219;47.410;9.730;2023-04-03T04:43:05;3.40;99.90
47482;DHT22;33219;47.410;9.730;2023-04-03T04:45:32;3.40;99.90
47482;DHT22;33219;47.410;9.730;2023-04-03T04:48:00;3.40;99.90
47482;DHT22;33219;47.410;9.730;2023-04-03T04:50:27;3.40;99.90
47482;DHT22;33219;47.410;9.730;2023-04-03T04:52:55;3.40;99.90
47482;DHT22;33219;47.410;9.730;2023-04-03T04:55:22;3.40;99.90
47482;DHT22;33219;47.410;9.730;2023-04-03T04:57:50;3.40;99.90
47482;DHT22;33219;47.410;9.730;2023-04-03T05:00:18;3.40;99.90
47482;DHT22;33219;47.410;9.730;2023-04-03T05:02:46;3.40;99.90
47482;DHT22;33219;47.410;9.730;2023-04-03T05:05:13;3.40;99.90
47482;DHT22;33219;47.410;9.730;2023-04-03T05:07:41;3.40;99.90
47482;DHT22;33219;47.410;9.730;2023-04-03T05:10:09;3.40;99.90
47482;DHT22;33219;47.410;9.730;2023-04-03T05:12:37;3.40;99.90
47482;DHT22;33219;47.410;9.730;2023-04-03T05:15:06;3.40;99.90
47482;DHT22;33219;47.410;9.730;2023-04-03T05:17:33;3.40;99.90
47482;DHT22;33219;47.410;9.730;2023-04-03T05:20:02;3.40;99.90
47482;DHT22;33219;47.410;9.730;2023-04-03T05:22:31;3.40;99.90
47482;DHT22;33219;47.410;9.730;2023-04-03T05:24:58;3.50;99.90
47482;DHT22;33219;47.410;9.730;2023-04-03T05:27:26;3.50;99.90
47482;DHT22;33219;47.410;9.730;2023-04-03T05:29:56;3.50;99.90
47482;DHT22;33219;47.410;9.730;2023-04-03T05:32:24;3.40;99.90
47482;DHT22;33219;47.410;9.730;2023-04-03T05:34:54;3.50;99.90
47482;DHT22;33219;47.410;9.730;2023-04-03T05:37:21;3.50;99.90
47482;DHT22;33219;47.410;9.730;2023-04-03T05:39:49;3.50;99.90
47482;DHT22;33219;47.410;9.730;2023-04-03T05:42:17;3.50;99.90
47482;DHT22;33219;47.410;9.730;2023-04-03T05:44:44;3.50;99.90
47482;DHT22;33219;47.410;9.730;2023-04-03T05:47:13;3.50;99.90
47482;DHT22;33219;47.410;9.730;2023-04-03T05:49:41;3.50;99.90
47482;DHT22;33219;47.410;9.730;2023-04-03T05:52:23;3.50;99.90
47482;DHT22;33219;47.410;9.730;2023-04-03T05:54:50;3.50;99.90
47482;DHT22;33219;47.410;9.730;2023-04-03T05:57:18;3.50;99.90
47482;DHT22;33219;47.410;9.730;2023-04-03T05:59:46;3.50;99.90
47482;DHT22;33219;47.410;9.730;2023-04-03T06:02:19;3.60;99.90
47482;DHT22;33219;47.410;9.730;2023-04-03T06:04:47;3.60;99.90
47482;DHT22;33219;47.410;9.730;2023-04-03T06:07:17;3.70;99.90
47482;DHT22;33219;47.410;9.730;2023-04-03T06:09:47;3.60;99.90
47482;DHT22;33219;47.410;9.730;2023-04-03T06:12:14;3.60;99.90
47482;DHT22;33219;47.410;9.730;2023-04-03T06:14:42;3.60;99.90
47482;DHT22;33219;47.410;9.730;2023-04-03T06:17:10;3.60;99.90
47482;DHT22;33219;47.410;9.730;2023-04-03T06:19:38;3.60;99.90
47482;DHT22;33219;47.410;9.730;2023-04-03T06:22:06;3.60;99.90
47482;DHT22;33219;47.410;9.730;2023-04-03T06:24:34;3.60;99.90
47482;DHT22;33219;47.410;9.730;2023-04-03T06:27:02;3.60;99.90
47482;DHT22;33219;47.410;9.730;2023-04-03T06:29:29;3.70;99.90
47482;DHT22;33219;47.410;9.730;2023-04-03T06:31:57;3.70;99.90
47482;DHT22;33219;47.410;9.730;2023-04-03T06:34:25;3.70;99.90
47482;DHT22;33219;47.410;9.730;2023-04-03T06:36:52;3.70;99.90
47482;DHT22;33219;47.410;9.730;2023-04-03T06:39:22;3.70;99.90
47482;DHT22;33219;47.410;9.730;2023-04-03T06:41:50;3.70;99.90
47482;DHT22;33219;47.410;9.730;2023-04-03T06:44:18;3.70;99.90
47482;DHT22;33219;47.410;9.730;2023-04-03T06:46:46;3.70;99.90
47482;DHT22;33219;47.410;9.730;2023-04-03T06:49:13;3.70;99.90
47482;DHT22;33219;47.410;9.730;2023-04-03T06:51:41;3.70;99.90
47482;DHT22;33219;47.410;9.730;2023-04-03T06:54:09;3.70;99.90
47482;DHT22;33219;47.410;9.730;2023-04-03T06:56:37;3.70;99.90
47482;DHT22;33219;47.410;9.730;2023-04-03T06:59:05;3.70;99.90
47482;DHT22;33219;47.410;9.730;2023-04-03T07:01:32;3.60;99.90
47482;DHT22;33219;47.410;9.730;2023-04-03T07:04:00;3.60;99.90
47482;DHT22;33219;47.410;9.730;2023-04-03T07:06:28;3.50;99.90
47482;DHT22;33219;47.410;9.730;2023-04-03T07:08:56;3.50;99.90
47482;DHT22;33219;47.410;9.730;2023-04-03T07:11:24;3.60;99.90
47482;DHT22;33219;47.410;9.730;2023-04-03T07:13:52;3.60;99.90
47482;DHT22;33219;47.410;9.730;2023-04-03T07:16:20;3.60;99.90
47482;DHT22;33219;47.410;9.730;2023-04-03T07:18:48;3.70;99.90
47482;DHT22;33219;47.410;9.730;2023-04-03T07:21:15;3.80;99.90
47482;DHT22;33219;47.410;9.730;2023-04-03T07:23:43;3.80;99.90
47482;DHT22;33219;47.410;9.730;2023-04-03T07:26:11;3.80;99.90
47482;DHT22;33219;47.410;9.730;2023-04-03T07:28:38;3.80;99.90
47482;DHT22;33219;47.410;9.730;2023-04-03T07:31:11;3.90;99.90
47482;DHT22;33219;47.410;9.730;2023-04-03T07:33:41;3.80;99.90
47482;DHT22;33219;47.410;9.730;2023-04-03T07:36:10;3.90;99.90
47482;DHT22;33219;47.410;9.730;2023-04-03T07:38:37;3.80;99.90
47482;DHT22;33219;47.410;9.730;2023-04-03T07:41:05;3.90;99.90
47482;DHT22;33219;47.410;9.730;2023-04-03T07:43:33;3.90;99.90
47482;DHT22;33219;47.410;9.730;2023-04-03T07:46:01;3.90;99.90
47482;DHT22;33219;47.410;9.730;2023-04-03T07:48:28;3.90;99.90
47482;DHT22;33219;47.410;9.730;2023-04-03T07:51:03;3.90;99.90
47482;DHT22;33219;47.410;9.730;2023-04-03T07:53:27;3.90;99.90
47482;DHT22;33219;47.410;9.730;2023-04-03T07:55:57;3.90;99.90
47482;DHT22;33219;47.410;9.730;2023-04-03T07:58:25;3.90;99.90
47482;DHT22;33219;47.410;9.730;2023-04-03T08:00:53;3.90;99.90
47482;DHT22;33219;47.410;9.730;2023-04-03T08:03:21;3.90;99.90
47482;DHT22;33219;47.410;9.730;2023-04-03T08:05:49;4.00;99.90
47482;DHT22;33219;47.410;9.730;2023-04-03T08:08:20;4.10;99.90
47482;DHT22;33219;47.410;9.730;2023-04-03T08:10:53;4.20;99.90
47482;DHT22;33219;47.410;9.730;2023-04-03T08:13:21;4.10;99.90
47482;DHT22;33219;47.410;9.730;2023-04-03T08:15:49;4.20;99.90
47482;DHT22;33219;47.410;9.730;2023-04-03T08:18:17;4.20;99.90
47482;DHT22;33219;47.410;9.730;2023-04-03T08:20:47;4.30;99.90
47482;DHT22;33219;47.410;9.730;2023-04-03T08:23:15;4.40;99.90
47482;DHT22;33219;47.410;9.730;2023-04-03T08:25:43;4.40;99.90
47482;DHT22;33219;47.410;9.730;2023-04-03T08:28:11;4.40;99.90
47482;DHT22;33219;47.410;9.730;2023-04-03T08:30:42;4.50;99.90
47482;DHT22;33219;47.410;9.730;2023-04-03T08:33:10;4.60;99.90
47482;DHT22;33219;47.410;9.730;2023-04-03T08:35:41;4.60;99.90
47482;DHT22;33219;47.410;9.730;2023-04-03T08:38:09;4.70;99.90
47482;DHT22;33219;47.410;9.730;2023-04-03T08:40:37;4.70;99.90
47482;DHT22;33219;47.410;9.730;2023-04-03T08:43:35;4.60;99.90
47482;DHT22;33219;47.410;9.730;2023-04-03T08:46:02;4.60;99.90
47482;DHT22;33219;47.410;9.730;2023-04-03T08:48:36;4.60;99.90
47482;DHT22;33219;47.410;9.730;2023-04-03T08:51:16;4.60;99.90
47482;DHT22;33219;47.410;9.730;2023-04-03T08:53:39;4.60;99.90
47482;DHT22;33219;47.410;9.730;2023-04-03T08:56:09;4.70;99.90
47482;DHT22;33219;47.410;9.730;2023-04-03T09:01:22;4.70;99.90
47482;DHT22;33219;47.410;9.730;2023-04-03T09:03:50;4.70;99.90
47482;DHT22;33219;47.410;9.730;2023-04-03T09:06:23;4.60;99.90
47482;DHT22;33219;47.410;9.730;2023-04-03T09:17:35;4.60;99.90
47482;DHT22;33219;47.410;9.730;2023-04-03T09:22:43;4.70;99.90
47482;DHT22;33219;47.410;9.730;2023-04-03T09:25:29;4.60;99.90
47482;DHT22;33219;47.410;9.730;2023-04-03T09:27:57;4.70;99.90
47482;DHT22;33219;47.410;9.730;2023-04-03T09:30:25;4.70;99.90
47482;DHT22;33219;47.410;9.730;2023-04-03T09:32:56;4.80;99.90
47482;DHT22;33219;47.410;9.730;2023-04-03T09:35:32;4.70;99.90
47482;DHT22;33219;47.410;9.730;2023-04-03T09:38:13;4.80;99.90
47482;DHT22;33219;47.410;9.730;2023-04-03T09:40:33;4.80;99.90
47482;DHT22;33219;47.410;9.730;2023-04-03T09:45:50;4.90;99.90
47482;DHT22;33219;47.410;9.730;2023-04-03T09:48:21;4.90;99.90
47482;DHT22;33219;47.410;9.730;2023-04-03T09:51:00;4.90;99.90
47482;DHT22;33219;47.410;9.730;2023-04-03T09:56:27;5.00;99.90
47482;DHT22;33219;47.410;9.730;2023-04-03T09:58:38;5.00;99.90
47482;DHT22;33219;47.410;9.730;2023-04-03T10:01:20;5.10;99.90
47482;DHT22;33219;47.410;9.730;2023-04-03T10:03:38;5.20;99.90
47482;DHT22;33219;47.410;9.730;2023-04-03T10:06:22;5.30;99.90
47482;DHT22;33219;47.410;9.730;2023-04-03T10:09:02;5.30;99.90
47482;DHT22;33219;47.410;9.730;2023-04-03T10:11:31;5.40;99.90
47482;DHT22;33219;47.410;9.730;2023-04-03T10:14:00;5.50;99.90
47482;DHT22;33219;47.410;9.730;2023-04-03T10:16:38;5.60;99.90
47482;DHT22;33219;47.410;9.730;2023-04-03T10:27:16;5.70;99.90
47482;DHT22;33219;47.410;9.730;2023-04-03T10:30:19;5.60;99.90
47482;DHT22;33219;47.410;9.730;2023-04-03T10:38:15;5.70;99.90
47482;DHT22;33219;47.410;9.730;2023-04-03T10:43:50;6.00;99.90
47482;DHT22;33219;47.410;9.730;2023-04-03T10:46:33;5.90;99.90
47482;DHT22;33219;47.410;9.730;2023-04-03T10:54:52;6.60;99.90
47482;DHT22;33219;47.410;9.730;2023-04-03T10:57:14;6.40;99.90
47482;DHT22;33219;47.410;9.730;2023-04-03T10:59:44;6.20;99.90
47482;DHT22;33219;47.410;9.730;2023-04-03T11:02:27;6.10;99.90
47482;DHT22;33219;47.410;9.730;2023-04-03T11:05:02;6.30;99.90
47482;DHT22;33219;47.410;9.730;2023-04-03T11:07:33;6.50;99.90
47482;DHT22;33219;47.410;9.730;2023-04-03T11:10:06;6.70;99.90
47482;DHT22;33219;47.410;9.730;2023-04-03T11:12:46;6.70;99.90
47482;DHT22;33219;47.410;9.730;2023-04-03T11:15:17;7.00;99.90
47482;DHT22;33219;47.410;9.730;2023-04-03T11:17:53;7.10;99.90
47482;DHT22;33219;47.410;9.730;2023-04-03T11:20:28;7.20;99.90
47482;DHT22;33219;47.410;9.730;2023-04-03T11:25:30;7.20;99.90
47482;DHT22;33219;47.410;9.730;2023-04-03T11:28:04;7.20;99.90
47482;DHT22;33219;47.410;9.730;2023-04-03T11:30:51;7.30;99.90
47482;DHT22;33219;47.410;9.730;2023-04-03T11:33:42;7.60;99.90
47482;DHT22;33219;47.410;9.730;2023-04-03T11:36:21;7.90;99.90
47482;DHT22;33219;47.410;9.730;2023-04-03T11:38:49;7.90;99.90
47482;DHT22;33219;47.410;9.730;2023-04-03T11:41:41;7.90;99.90
47482;DHT22;33219;47.410;9.730;2023-04-03T11:44:05;7.70;99.40
47482;DHT22;33219;47.410;9.730;2023-04-03T11:46:51;7.50;99.80
47482;DHT22;33219;47.410;9.730;2023-04-03T12:00:47;7.70;98.20
47482;DHT22;33219;47.410;9.730;2023-04-03T12:08:47;7.60;97.80
47482;DHT22;33219;47.410;9.730;2023-04-03T12:16:33;7.60;97.30
47482;DHT22;33219;47.410;9.730;2023-04-03T12:24:35;7.20;97.30
47482;DHT22;33219;47.410;9.730;2023-04-03T12:27:24;7.10;97.80
47482;DHT22;33219;47.410;9.730;2023-04-03T12:35:29;7.00;97.30
47482;DHT22;33219;47.410;9.730;2023-04-03T12:38:25;7.00;97.00
47482;DHT22;33219;47.410;9.730;2023-04-03T12:46:21;7.10;97.20
47482;DHT22;33219;47.410;9.730;2023-04-03T12:48:55;7.20;97.20
47482;DHT22;33219;47.410;9.730;2023-04-03T12:51:41;7.30;97.10
47482;DHT22;33219;47.410;9.730;2023-04-03T12:55:19;7.50;97.10
47482;DHT22;33219;47.410;9.730;2023-04-03T12:59:44;7.90;97.80
47482;DHT22;33219;47.410;9.730;2023-04-03T13:02:29;8.10;97.20
47482;DHT22;33219;47.410;9.730;2023-04-03T13:05:04;8.00;96.20
47482;DHT22;33219;47.410;9.730;2023-04-03T13:07:35;7.90;96.10
47482;DHT22;33219;47.410;9.730;2023-04-03T13:12:51;7.70;95.10
47482;DHT22;33219;47.410;9.730;2023-04-03T13:15:22;7.70;95.60
47482;DHT22;33219;47.410;9.730;2023-04-03T13:17:51;7.70;95.10
47482;DHT22;33219;47.410;9.730;2023-04-03T13:20:25;7.70;95.10
47482;DHT22;33219;47.410;9.730;2023-04-03T13:22:57;7.70;94.80
47482;DHT22;33219;47.410;9.730;2023-04-03T13:25:28;7.70;95.30
47482;DHT22;33219;47.410;9.730;2023-04-03T13:27:58;7.60;95.20
47482;DHT22;33219;47.410;9.730;2023-04-03T13:30:32;7.60;95.00
47482;DHT22;33219;47.410;9.730;2023-04-03T13:33:02;7.50;95.20
47482;DHT22;33219;47.410;9.730;2023-04-03T13:35:38;7.30;94.80
47482;DHT22;33219;47.410;9.730;2023-04-03T13:40:57;7.20;95.80
47482;DHT22;33219;47.410;9.730;2023-04-03T13:43:29;7.30;96.00
47482;DHT22;33219;47.410;9.730;2023-04-03T13:46:19;7.20;95.90
47482;DHT22;33219;47.410;9.730;2023-04-03T13:48:44;7.10;95.80
47482;DHT22;33219;47.410;9.730;2023-04-03T13:53:54;6.90;96.40
47482;DHT22;33219;47.410;9.730;2023-04-03T13:56:38;6.80;96.30
47482;DHT22;33219;47.410;9.730;2023-04-03T14:01:51;6.70;96.30
47482;DHT22;33219;47.410;9.730;2023-04-03T14:04:23;6.70;96.10
47482;DHT22;33219;47.410;9.730;2023-04-03T14:06:51;6.50;95.90
47482;DHT22;33219;47.410;9.730;2023-04-03T14:09:20;6.50;96.30
47482;DHT22;33219;47.410;9.730;2023-04-03T14:11:51;6.50;96.40
47482;DHT22;33219;47.410;9.730;2023-04-03T14:14:24;6.50;96.70
47482;DHT22;33219;47.410;9.730;2023-04-03T14:16:55;6.50;96.80
47482;DHT22;33219;47.410;9.730;2023-04-03T14:19:28;6.50;96.60
47482;DHT22;33219;47.410;9.730;2023-04-03T14:21:57;6.50;96.30
47482;DHT22;33219;47.410;9.730;2023-04-03T14:24:25;6.50;96.10
47482;DHT22;33219;47.410;9.730;2023-04-03T14:26:55;6.40;96.20
47482;DHT22;33219;47.410;9.730;2023-04-03T14:29:24;6.50;96.30
47482;DHT22;33219;47.410;9.730;2023-04-03T14:31:52;6.60;96.30
47482;DHT22;33219;47.410;9.730;2023-04-03T14:34:19;6.60;95.60
47482;DHT22;33219;47.410;9.730;2023-04-03T14:36:47;6.60;95.60
47482;DHT22;33219;47.410;9.730;2023-04-03T14:39:17;6.60;95.70
47482;DHT22;33219;47.410;9.730;2023-04-03T14:41:45;6.60;95.60
47482;DHT22;33219;47.410;9.730;2023-04-03T14:44:13;6.60;96.20
47482;DHT22;33219;47.410;9.730;2023-04-03T14:46:43;6.60;96.00
47482;DHT22;33219;47.410;9.730;2023-04-03T14:49:16;6.50;95.60
47482;DHT22;33219;47.410;9.730;2023-04-03T14:51:44;6.50;95.70
47482;DHT22;33219;47.410;9.730;2023-04-03T14:54:18;6.30;95.30
47482;DHT22;33219;47.410;9.730;2023-04-03T14:56:47;6.30;95.30
47482;DHT22;33219;47.410;9.730;2023-04-03T14:59:15;6.20;95.70
47482;DHT22;33219;47.410;9.730;2023-04-03T15:01:43;6.10;95.60
47482;DHT22;33219;47.410;9.730;2023-04-03T15:04:13;6.10;95.90
47482;DHT22;33219;47.410;9.730;2023-04-03T15:06:41;6.10;95.90
47482;DHT22;33219;47.410;9.730;2023-04-03T15:09:21;6.10;96.00
47482;DHT22;33219;47.410;9.730;2023-04-03T15:11:40;6.10;96.10
47482;DHT22;33219;47.410;9.730;2023-04-03T15:14:09;6.10;96.10
47482;DHT22;33219;47.410;9.730;2023-04-03T15:16:37;6.20;96.00
47482;DHT22;33219;47.410;9.730;2023-04-03T15:19:05;6.20;95.80
47482;DHT22;33219;47.410;9.730;2023-04-03T15:21:32;6.30;95.90
47482;DHT22;33219;47.410;9.730;2023-04-03T15:24:00;6.20;96.10
47482;DHT22;33219;47.410;9.730;2023-04-03T15:26:28;6.10;96.30
47482;DHT22;33219;47.410;9.730;2023-04-03T15:28:56;6.10;96.10
47482;DHT22;33219;47.410;9.730;2023-04-03T15:31:24;6.10;96.30
47482;DHT22;33219;47.410;9.730;2023-04-03T15:33:51;6.00;96.30
47482;DHT22;33219;47.410;9.730;2023-04-03T15:36:19;6.00;96.40
47482;DHT22;33219;47.410;9.730;2023-04-03T15:38:46;6.00;96.50
47482;DHT22;33219;47.410;9.730;2023-04-03T15:41:14;6.00;96.50
47482;DHT22;33219;47.410;9.730;2023-04-03T15:43:42;6.00;96.50
47482;DHT22;33219;47.410;9.730;2023-04-03T15:46:09;6.00;96.60
47482;DHT22;33219;47.410;9.730;2023-04-03T15:48:37;6.00;96.60
47482;DHT22;33219;47.410;9.730;2023-04-03T15:51:05;6.00;97.20
47482;DHT22;33219;47.410;9.730;2023-04-03T15:53:33;6.00;97.20
47482;DHT22;33219;47.410;9.730;2023-04-03T15:56:01;5.90;97.20
47482;DHT22;33219;47.410;9.730;2023-04-03T15:58:28;5.80;97.00
47482;DHT22;33219;47.410;9.730;2023-04-03T16:00:56;5.80;96.80
47482;DHT22;33219;47.410;9.730;2023-04-03T16:03:24;5.70;96.70
47482;DHT22;33219;47.410;9.730;2023-04-03T16:05:51;5.60;96.50
47482;DHT22;33219;47.410;9.730;2023-04-03T16:08:19;5.60;96.90
47482;DHT22;33219;47.410;9.730;2023-04-03T16:10:47;5.60;96.50
47482;DHT22;33219;47.410;9.730;2023-04-03T16:13:15;5.50;96.90
47482;DHT22;33219;47.410;9.730;2023-04-03T16:15:43;5.50;97.30
47482;DHT22;33219;47.410;9.730;2023-04-03T16:18:10;5.50;97.50
47482;DHT22;33219;47.410;9.730;2023-04-03T16:20:40;5.40;97.40
47482;DHT22;33219;47.410;9.730;2023-04-03T16:23:09;5.40;97.70
47482;DHT22;33219;47.410;9.730;2023-04-03T16:25:38;5.30;97.30
47482;DHT22;33219;47.410;9.730;2023-04-03T16:28:06;5.30;97.50
47482;DHT22;33219;47.410;9.730;2023-04-03T16:30:33;5.30;97.80
47482;DHT22;33219;47.410;9.730;2023-04-03T16:33:01;5.30;97.80
47482;DHT22;33219;47.410;9.730;2023-04-03T16:35:29;5.30;97.70
47482;DHT22;33219;47.410;9.730;2023-04-03T16:37:57;5.30;97.60
47482;DHT22;33219;47.410;9.730;2023-04-03T16:40:25;5.20;97.40
47482;DHT22;33219;47.410;9.730;2023-04-03T16:42:52;5.20;97.50
47482;DHT22;33219;47.410;9.730;2023-04-03T16:45:20;5.20;97.70
47482;DHT22;33219;47.410;9.730;2023-04-03T16:47:48;5.10;97.70
47482;DHT22;33219;47.410;9.730;2023-04-03T16:50:15;5.20;98.00
47482;DHT22;33219;47.410;9.730;2023-04-03T16:52:45;5.20;98.00
47482;DHT22;33219;47.410;9.730;2023-04-03T16:55:13;5.20;97.90
47482;DHT22;33219;47.410;9.730;2023-04-03T16:57:41;5.20;98.20
47482;DHT22;33219;47.410;9.730;2023-04-03T17:00:09;5.20;97.90
47482;DHT22;33219;47.410;9.730;2023-04-03T17:02:38;5.20;97.40
47482;DHT22;33219;47.410;9.730;2023-04-03T17:05:07;5.10;97.50
47482;DHT22;33219;47.410;9.730;2023-04-03T17:07:35;5.10;97.80
47482;DHT22;33219;47.410;9.730;2023-04-03T17:10:02;5.00;97.70
47482;DHT22;33219;47.410;9.730;2023-04-03T17:12:30;5.00;97.90
47482;DHT22;33219;47.410;9.730;2023-04-03T17:14:58;5.00;97.90
47482;DHT22;33219;47.410;9.730;2023-04-03T17:17:26;5.00;98.30
47482;DHT22;33219;47.410;9.730;2023-04-03T17:19:54;5.00;98.20
47482;DHT22;33219;47.410;9.730;2023-04-03T17:22:22;5.00;98.00
47482;DHT22;33219;47.410;9.730;2023-04-03T17:24:50;5.00;98.10
47482;DHT22;33219;47.410;9.730;2023-04-03T17:27:18;5.00;98.20
47482;DHT22;33219;47.410;9.730;2023-04-03T17:29:46;5.00;98.40
47482;DHT22;33219;47.410;9.730;2023-04-03T17:32:14;5.00;98.30
47482;DHT22;33219;47.410;9.730;2023-04-03T17:34:47;5.00;98.50
47482;DHT22;33219;47.410;9.730;2023-04-03T17:37:15;4.90;98.60
47482;DHT22;33219;47.410;9.730;2023-04-03T17:39:43;4.90;98.40
47482;DHT22;33219;47.410;9.730;2023-04-03T17:42:12;5.00;98.40